地図

経路データ

SID SEASON NUMBER BASIN SUBBASIN NAME ISO_TIME NATURE LAT LON WMO_WIND WMO_PRES WMO_AGENCY TRACK_TYPE DIST2LAND LANDFALL IFLAG USA_AGENCY USA_ATCF_ID USA_LAT USA_LON USA_RECORD USA_STATUS USA_WIND USA_PRES USA_SSHS USA_R34_NE USA_R34_SE USA_R34_SW USA_R34_NW USA_R50_NE USA_R50_SE USA_R50_SW USA_R50_NW USA_R64_NE USA_R64_SE USA_R64_SW USA_R64_NW USA_POCI USA_ROCI USA_RMW USA_EYE TOKYO_LAT TOKYO_LON TOKYO_GRADE TOKYO_WIND TOKYO_PRES TOKYO_R50_DIR TOKYO_R50_LONG TOKYO_R50_SHORT TOKYO_R30_DIR TOKYO_R30_LONG TOKYO_R30_SHORT TOKYO_LAND CMA_LAT CMA_LON CMA_CAT CMA_WIND CMA_PRES HKO_LAT HKO_LON HKO_CAT HKO_WIND HKO_PRES NEWDELHI_LAT NEWDELHI_LON NEWDELHI_GRADE NEWDELHI_WIND NEWDELHI_PRES NEWDELHI_CI NEWDELHI_DP NEWDELHI_POCI REUNION_LAT REUNION_LON REUNION_TYPE REUNION_WIND REUNION_PRES REUNION_TNUM REUNION_CI REUNION_RMW REUNION_R34_NE REUNION_R34_SE REUNION_R34_SW REUNION_R34_NW REUNION_R50_NE REUNION_R50_SE REUNION_R50_SW REUNION_R50_NW REUNION_R64_NE REUNION_R64_SE REUNION_R64_SW REUNION_R64_NW BOM_LAT BOM_LON BOM_TYPE BOM_WIND BOM_PRES BOM_TNUM BOM_CI BOM_RMW BOM_R34_NE BOM_R34_SE BOM_R34_SW BOM_R34_NW BOM_R50_NE BOM_R50_SE BOM_R50_SW BOM_R50_NW BOM_R64_NE BOM_R64_SE BOM_R64_SW BOM_R64_NW BOM_ROCI BOM_POCI BOM_EYE BOM_POS_METHOD BOM_PRES_METHOD NADI_LAT NADI_LON NADI_CAT NADI_WIND NADI_PRES WELLINGTON_LAT WELLINGTON_LON WELLINGTON_WIND WELLINGTON_PRES DS824_LAT DS824_LON DS824_STAGE DS824_WIND DS824_PRES TD9636_LAT TD9636_LON TD9636_STAGE TD9636_WIND TD9636_PRES TD9635_LAT TD9635_LON TD9635_WIND TD9635_PRES TD9635_ROCI NEUMANN_LAT NEUMANN_LON NEUMANN_CLASS NEUMANN_WIND NEUMANN_PRES MLC_LAT MLC_LON MLC_CLASS MLC_WIND MLC_PRES USA_GUST BOM_GUST BOM_GUST_PER REUNION_GUST REUNION_GUST_PER USA_SEAHGT USA_SEARAD_NE USA_SEARAD_SE USA_SEARAD_SW USA_SEARAD_NW STORM_SPEED STORM_DIR
1859046S32051 1859 4 SI MM NOT_NAMED 1859-02-14 18:00:00 NR -31.6000 50.9000 main 818 818 __________O___ -1 -31.6000 50.9000 7 3 94
1859046S32051 1859 4 SI MM NOT_NAMED 1859-02-14 21:00:00 NR -31.6127 51.1001 main 828 828 __________P___ -1 -31.6127 51.1001 7 3 95
1859046S32051 1859 4 SI MM NOT_NAMED 1859-02-15 00:00:00 NR -31.6302 51.3001 main 838 838 __________P___ -1 -31.6302 51.3001 7 3 98
1859046S32051 1859 4 SI MM NOT_NAMED 1859-02-15 03:00:00 NR -31.6576 51.5001 main 857 857 __________P___ -1 -31.6576 51.5001 7 3 102
1859046S32051 1859 4 SI MM NOT_NAMED 1859-02-15 06:00:00 NR -31.7000 51.7000 main 867 867 __________O___ -1 -31.7000 51.7000 7 4 107
1859046S32051 1859 4 SI MM NOT_NAMED 1859-02-15 09:00:00 NR -31.7605 51.8999 main 887 887 __________P___ -1 -31.7605 51.8999 7 4 112
1859046S32051 1859 4 SI MM NOT_NAMED 1859-02-15 12:00:00 NR -31.8349 52.0999 main 898 898 __________P___ -1 -31.8349 52.0999 7 4 115
1859046S32051 1859 4 SI MM NOT_NAMED 1859-02-15 15:00:00 NR -31.9168 52.3000 main 918 918 __________P___ -1 -31.9168 52.3000 7 4 116
1859046S32051 1859 4 SI MM NOT_NAMED 1859-02-15 18:00:00 NR -32.0000 52.5000 main 938 938 __________O___ -1 -32.0000 52.5000 7 4 115
1859046S32051 1859 4 SI MM NOT_NAMED 1859-02-15 21:00:00 NR -32.0750 52.7041 main 958 958 __________P___ -1 -32.0750 52.7041 7 4 114
1859046S32051 1859 4 SI MM NOT_NAMED 1859-02-16 00:00:00 NR -32.1499 52.9076 main 969 969 __________P___ -1 -32.1499 52.9076 7 4 114
1859046S32051 1859 4 SI MM NOT_NAMED 1859-02-16 03:00:00 NR -32.2250 53.1073 main 990 990 __________P___ -1 -32.2250 53.1073 7 4 114
1859046S32051 1859 4 SI MM NOT_NAMED 1859-02-16 06:00:00 NR -32.3000 53.3000 main 1010 1010 __________O___ -1 -32.3000 53.3000 7 4 115
1859046S32051 1859 4 SI MM NOT_NAMED 1859-02-16 09:00:00 NR -32.3749 53.4863 main 1031 1031 __________P___ -1 -32.3749 53.4863 7 3 116
1859046S32051 1859 4 SI MM NOT_NAMED 1859-02-16 12:00:00 NR -32.4499 53.6651 main 1043 1043 __________P___ -1 -32.4499 53.6651 7 3 117
1859046S32051 1859 4 SI MM NOT_NAMED 1859-02-16 15:00:00 NR -32.5249 53.8363 main 1057 1057 __________P___ -1 -32.5249 53.8363 7 3 118
1859046S32051 1859 4 SI MM NOT_NAMED 1859-02-16 18:00:00 NR -32.6000 54.0000 main 1078 1078 __________O___ -1 -32.6000 54.0000 7 3 119
1859046S32051 1859 4 SI MM NOT_NAMED 1859-02-16 21:00:00 NR -32.6749 54.1533 main 1099 1099 __________P___ -1 -32.6749 54.1533 7 3 121
1859046S32051 1859 4 SI MM NOT_NAMED 1859-02-17 00:00:00 NR -32.7498 54.3002 main 1105 1105 __________P___ -1 -32.7498 54.3002 7 3 121
1859046S32051 1859 4 SI MM NOT_NAMED 1859-02-17 03:00:00 NR -32.8249 54.4470 main 1119 1119 __________P___ -1 -32.8249 54.4470 7 3 121
1859046S32051 1859 4 SI MM NOT_NAMED 1859-02-17 06:00:00 NR -32.9000 54.6000 main 1140 1140 __________O___ -1 -32.9000 54.6000 7 3 118
1859046S32051 1859 4 SI MM NOT_NAMED 1859-02-17 09:00:00 NR -32.9709 54.7679 main 1161 1161 __________P___ -1 -32.9709 54.7679 7 3 116
1859046S32051 1859 4 SI MM NOT_NAMED 1859-02-17 12:00:00 NR -33.0425 54.9427 main 1167 1167 __________P___ -1 -33.0425 54.9427 7 3 116
1859046S32051 1859 4 SI MM NOT_NAMED 1859-02-17 15:00:00 NR -33.1178 55.1211 main 1188 1188 __________P___ -1 -33.1178 55.1211 7 3 118
1859046S32051 1859 4 SI MM NOT_NAMED 1859-02-17 18:00:00 NR -33.2000 55.3000 main 1209 1209 __________O___ -1 -33.2000 55.3000 7 3 121
1859046S32051 1859 4 SI MM NOT_NAMED 1859-02-17 21:00:00 NR -33.2927 55.4710 main 1230 1230 __________P___ -1 -33.2927 55.4710 7 3 124
1859046S32051 1859 4 SI MM NOT_NAMED 1859-02-18 00:00:00 NR -33.3923 55.6426 main 1244 1244 __________P___ -1 -33.3923 55.6426 7 4 125
1859046S32051 1859 4 SI MM NOT_NAMED 1859-02-18 03:00:00 NR -33.4958 55.8179 main 1265 1265 __________P___ -1 -33.4958 55.8179 7 4 125
1859046S32051 1859 4 SI MM NOT_NAMED 1859-02-18 06:00:00 NR -33.6000 56.0000 main 1286 1286 __________O___ -1 -33.6000 56.0000 7 4 123
1859046S32051 1859 4 SI MM NOT_NAMED 1859-02-18 09:00:00 NR -33.7041 56.1969 main 1307 1307 __________P___ -1 -33.7041 56.1969 7 4 122
1859046S32051 1859 4 SI MM NOT_NAMED 1859-02-18 12:00:00 NR -33.8075 56.4000 main 1328 1328 __________P___ -1 -33.8075 56.4000 7 4 121
1859046S32051 1859 4 SI MM NOT_NAMED 1859-02-18 15:00:00 NR -33.9072 56.6031 main 1349 1349 __________P___ -1 -33.9072 56.6031 7 4 120
1859046S32051 1859 4 SI MM NOT_NAMED 1859-02-18 18:00:00 NR -34.0000 56.8000 main 1370 1370 __________O___ -1 -34.0000 56.8000 7 4 119
1859046S32051 1859 4 SI MM NOT_NAMED 1859-02-18 21:00:00 NR -34.0838 56.9859 main 1391 1391 __________P___ -1 -34.0838 56.9859 7 3 118
1859046S32051 1859 4 SI MM NOT_NAMED 1859-02-19 00:00:00 NR -34.1601 57.1624 main 1412 1412 __________P___ -1 -34.1601 57.1624 7 3 117
1859046S32051 1859 4 SI MM NOT_NAMED 1859-02-19 03:00:00 NR -34.2314 57.3327 main 1419 1419 __________P___ -1 -34.2314 57.3327 7 3 116
1859046S32051 1859 4 SI MM NOT_NAMED 1859-02-19 06:00:00 NR -34.3000 57.5000 main 1440 __________O___ -1 -34.3000 57.5000 7 3 117

IBTrACS Databaseについて

本データベースは、米国NOAAが公開する1842年以降の世界の熱帯低気圧のベストトラックデータアーカイブInternational Best Track Archive for Climate Stewardship (IBTrACS)を、ウェブで閲覧しやすい形式に変換したものです。

最終更新日:2021-11-26